createdAt,value
2023-05-10T00:04:04.423Z,79.48
2023-05-10T00:09:07.600Z,79.76
2023-05-10T00:14:10.500Z,79.96
2023-05-10T00:19:13.361Z,80.59
2023-05-10T00:24:16.202Z,80.82
2023-05-10T00:29:19.051Z,81.60
2023-05-10T00:34:21.954Z,82.53
2023-05-10T00:39:24.816Z,83.20
2023-05-10T00:44:27.672Z,83.35
2023-05-10T00:49:31.122Z,83.55
2023-05-10T00:54:33.881Z,83.77
2023-05-10T00:59:36.803Z,84.07
2023-05-10T01:04:40.596Z,84.57
2023-05-10T01:09:43.491Z,84.83
2023-05-10T01:14:46.983Z,85.31
2023-05-10T01:19:51.120Z,85.13
2023-05-10T01:25:00.196Z,84.67
2023-05-10T01:30:15.912Z,84.47
2023-05-10T01:35:39.480Z,84.05
2023-05-10T01:41:00.909Z,83.91
2023-05-10T01:46:12.125Z,83.91
2023-05-10T01:51:24.051Z,84.08
2023-05-10T01:56:29.343Z,83.90
2023-05-10T02:01:34.719Z,83.43
2023-05-10T02:06:39.640Z,83.03
2023-05-10T02:11:45.182Z,82.83
2023-05-10T02:16:50.051Z,82.87
2023-05-10T02:21:53.628Z,82.96
2023-05-10T02:26:58.374Z,82.96
2023-05-10T02:32:02.697Z,82.67
2023-05-10T02:37:07.180Z,82.20
2023-05-10T02:42:15.130Z,82.39
2023-05-10T02:47:19.800Z,82.42
2023-05-10T02:52:27.448Z,82.42
2023-05-10T02:57:34.926Z,82.69
2023-05-10T03:02:38.027Z,82.95
2023-05-10T03:07:41.105Z,82.87
2023-05-10T03:13:12.270Z,83.13
2023-05-10T03:18:22.500Z,82.97
2023-05-10T03:23:31.314Z,82.57
2023-05-10T03:28:35.910Z,82.20
2023-05-10T03:33:50.456Z,82.20
2023-05-10T03:38:53.376Z,82.28
2023-05-10T03:43:56.230Z,82.52
2023-05-10T03:48:59.101Z,82.48
2023-05-10T03:54:02.142Z,82.91
2023-05-10T03:59:08.502Z,83.03
2023-05-10T04:04:11.565Z,83.02
2023-05-10T04:09:15.162Z,82.60
2023-05-10T04:14:18.056Z,81.79
2023-05-10T04:19:21.429Z,81.04
2023-05-10T04:24:24.613Z,80.43
2023-05-10T04:29:29.730Z,80.01
2023-05-10T04:34:35.973Z,79.36
2023-05-10T04:39:42.188Z,78.61
2023-05-10T04:44:45.867Z,77.87
2023-05-10T04:49:48.713Z,77.46
2023-05-10T04:54:51.959Z,77.03
2023-05-10T04:59:54.666Z,76.22
2023-05-10T05:04:59.014Z,75.20
2023-05-10T05:10:01.886Z,74.16
2023-05-10T05:15:05.548Z,72.66
2023-05-10T05:20:10.520Z,71.47
2023-05-10T05:25:13.860Z,69.99
2023-05-10T05:30:16.978Z,68.49
2023-05-10T05:35:20.042Z,66.88
2023-05-10T05:40:23.441Z,66.29
2023-05-10T05:45:26.378Z,65.23
2023-05-10T05:50:29.233Z,63.60
2023-05-10T05:55:32.696Z,60.80
2023-05-10T06:00:35.886Z,59.05
2023-05-10T06:05:39.292Z,57.33
2023-05-10T06:10:42.423Z,56.07
2023-05-10T06:15:45.400Z,55.14
2023-05-10T06:20:48.263Z,53.64
2023-05-10T06:25:51.194Z,52.59
2023-05-10T06:30:54.189Z,51.38
2023-05-10T06:35:57.136Z,50.27
2023-05-10T06:41:01.258Z,50.25
2023-05-10T06:46:04.569Z,49.28
2023-05-10T06:51:07.648Z,47.82
2023-05-10T06:56:10.495Z,47.22
2023-05-10T07:01:14.021Z,46.93
2023-05-10T07:06:29.430Z,45.96
2023-05-10T07:11:36.570Z,44.31
2023-05-10T07:16:40.154Z,42.62
2023-05-10T07:21:45.358Z,41.26
2023-05-10T07:26:49.399Z,40.73
2023-05-10T07:31:52.487Z,39.83
2023-05-10T07:36:55.672Z,39.98
2023-05-10T07:41:59.929Z,39.40
2023-05-10T07:47:03.842Z,37.92
2023-05-10T07:52:06.758Z,36.91
2023-05-10T07:57:09.536Z,36.86
2023-05-10T08:02:12.495Z,36.07
2023-05-10T08:07:15.366Z,35.37
2023-05-10T08:12:18.244Z,34.19
2023-05-10T08:17:23.472Z,34.84
2023-05-10T08:22:28.494Z,34.14
2023-05-10T08:27:31.348Z,33.07
2023-05-10T08:32:34.310Z,33.04
2023-05-10T08:37:37.253Z,32.45
2023-05-10T08:42:44.067Z,32.42
2023-05-10T08:47:48.134Z,32.60
2023-05-10T08:52:55.142Z,32.40
2023-05-10T08:57:58.207Z,32.00
2023-05-10T09:03:02.133Z,31.62
2023-05-10T09:08:06.983Z,31.41
2023-05-10T09:13:11.555Z,30.46
2023-05-10T09:18:14.673Z,30.83
2023-05-10T09:23:17.614Z,30.86
2023-05-10T09:28:20.531Z,30.09
2023-05-10T09:33:23.421Z,30.14
2023-05-10T09:38:27.795Z,30.59
2023-05-10T09:43:39.012Z,30.54
2023-05-10T09:48:47.302Z,30.33
2023-05-10T09:54:10.620Z,29.80
2023-05-10T09:59:14.005Z,29.61
2023-05-10T10:04:17.262Z,29.20
2023-05-10T10:09:20.292Z,28.88
2023-05-10T10:14:24.968Z,28.87
2023-05-10T10:19:27.910Z,29.10
2023-05-10T10:24:30.886Z,29.61
2023-05-10T10:29:42.310Z,29.39
2023-05-10T10:34:45.248Z,29.31
2023-05-10T10:39:50.689Z,29.06
2023-05-10T10:45:13.282Z,29.37
2023-05-10T10:50:17.507Z,28.98
2023-05-10T10:55:26.059Z,28.74
2023-05-10T11:00:34.084Z,28.65
2023-05-10T11:05:41.594Z,28.77
2023-05-10T11:11:11.223Z,28.44
2023-05-10T11:16:16.636Z,28.19
2023-05-10T11:21:19.951Z,28.03
2023-05-10T11:26:26.274Z,28.19
2023-05-10T11:31:29.892Z,27.43
2023-05-10T11:36:37.407Z,27.89
2023-05-10T11:41:42.897Z,27.86
2023-05-10T11:46:45.983Z,27.95
2023-05-10T11:51:55.345Z,27.57
2023-05-10T11:56:58.177Z,27.02
2023-05-10T12:02:01.298Z,27.21
2023-05-10T12:07:04.468Z,26.60
2023-05-10T12:12:07.772Z,26.48
2023-05-10T12:17:14.506Z,26.88
2023-05-10T12:22:23.323Z,25.86
2023-05-10T12:27:41.613Z,25.53
2023-05-10T12:32:45.370Z,25.57
2023-05-10T12:37:49.007Z,25.45
2023-05-10T12:42:51.923Z,24.94
2023-05-10T12:47:54.908Z,24.76
2023-05-10T12:52:58.110Z,24.22
2023-05-10T12:58:01.230Z,24.24
2023-05-10T13:03:06.216Z,24.65
2023-05-10T13:08:09.025Z,24.35
2023-05-10T13:13:11.882Z,23.24
2023-05-10T13:18:14.690Z,23.22
2023-05-10T13:23:17.544Z,23.34
2023-05-10T13:28:20.516Z,23.96
2023-05-10T13:33:23.279Z,23.95
2023-05-10T13:38:26.829Z,23.91
2023-05-10T13:43:30.494Z,23.51
2023-05-10T13:48:33.272Z,23.86
2023-05-10T13:53:36.038Z,22.37
2023-05-10T13:58:38.839Z,21.66
2023-05-10T14:03:41.725Z,21.30
2023-05-10T14:08:44.774Z,20.28
2023-05-10T14:13:47.515Z,19.84
2023-05-10T14:18:50.387Z,19.14
2023-05-10T14:23:53.317Z,18.83
2023-05-10T14:28:56.201Z,18.64
2023-05-10T14:34:00.272Z,17.80
2023-05-10T14:39:03.942Z,17.65
2023-05-10T14:44:06.739Z,17.66
2023-05-10T14:49:09.632Z,17.36
2023-05-10T14:54:12.467Z,16.91
2023-05-10T14:59:15.328Z,16.63
2023-05-10T15:04:18.582Z,16.34
2023-05-10T15:09:21.860Z,15.40
2023-05-10T15:14:24.715Z,15.52
2023-05-10T15:19:27.490Z,15.91
2023-05-10T15:24:30.917Z,15.79
2023-05-10T15:29:35.345Z,15.84
2023-05-10T15:34:38.179Z,15.09
2023-05-10T15:39:41.009Z,15.23
2023-05-10T15:44:45.553Z,14.85
2023-05-10T15:49:48.560Z,14.74
2023-05-10T15:54:51.942Z,14.30
2023-05-10T15:59:54.818Z,14.27
2023-05-10T16:04:57.698Z,14.80
2023-05-10T16:10:04.145Z,14.33
2023-05-10T16:15:07.832Z,13.93
2023-05-10T16:20:11.220Z,13.87
2023-05-10T16:25:14.303Z,13.56
2023-05-10T16:30:17.276Z,13.68
2023-05-10T16:35:20.220Z,13.83
2023-05-10T16:40:24.099Z,13.48
2023-05-10T16:45:27.051Z,13.75
2023-05-10T16:50:29.902Z,13.93
2023-05-10T16:55:32.734Z,13.81
2023-05-10T17:00:36.395Z,13.68
2023-05-10T17:05:39.209Z,14.09
2023-05-10T17:10:42.085Z,14.21
2023-05-10T17:15:47.448Z,14.00
2023-05-10T17:20:50.864Z,14.43
2023-05-10T17:25:53.652Z,14.69
2023-05-10T17:31:00.217Z,15.34
2023-05-10T17:36:03.860Z,16.08
2023-05-10T17:41:06.731Z,17.37
2023-05-10T17:46:09.687Z,18.76
2023-05-10T17:51:12.796Z,20.33
2023-05-10T17:56:15.629Z,21.83
2023-05-10T18:01:18.590Z,23.06
2023-05-10T18:06:21.539Z,24.13
2023-05-10T18:11:24.404Z,25.08
2023-05-10T18:16:27.244Z,26.27
2023-05-10T18:21:30.046Z,27.36
2023-05-10T18:26:32.870Z,28.27
2023-05-10T18:31:35.804Z,29.18
2023-05-10T18:36:38.773Z,29.74
2023-05-10T18:41:41.542Z,30.81
2023-05-10T18:46:44.633Z,31.62
2023-05-10T18:51:47.506Z,32.25
2023-05-10T18:56:50.324Z,32.90
2023-05-10T19:01:54.893Z,33.64
2023-05-10T19:07:01.044Z,34.48
2023-05-10T19:12:03.992Z,35.08
2023-05-10T19:17:09.802Z,35.89
2023-05-10T19:22:13.451Z,36.55
2023-05-10T19:27:16.879Z,37.40
2023-05-10T19:32:19.818Z,38.43
2023-05-10T19:37:22.770Z,39.75
2023-05-10T19:42:25.642Z,40.73
2023-05-10T19:47:28.623Z,41.12
2023-05-10T19:52:31.467Z,41.78
2023-05-10T19:57:34.377Z,42.53
2023-05-10T20:02:37.244Z,43.22
2023-05-10T20:07:40.136Z,43.64
2023-05-10T20:12:52.239Z,44.16
2023-05-10T20:17:55.644Z,45.15
2023-05-10T20:22:58.547Z,46.22
2023-05-10T20:28:01.423Z,46.38
2023-05-10T20:33:04.490Z,46.77
2023-05-10T20:38:07.489Z,47.08
2023-05-10T20:43:10.763Z,47.70
2023-05-10T20:48:13.714Z,48.62
2023-05-10T20:53:18.606Z,48.80
2023-05-10T20:58:21.567Z,49.08
2023-05-10T21:03:24.414Z,49.13
2023-05-10T21:08:27.271Z,50.62
2023-05-10T21:13:30.345Z,51.17
2023-05-10T21:18:33.493Z,51.80
2023-05-10T21:23:36.350Z,52.42
2023-05-10T21:28:40.208Z,53.47
2023-05-10T21:33:43.568Z,54.40
2023-05-10T21:38:46.771Z,55.59
2023-05-10T21:43:49.612Z,56.69
2023-05-10T21:48:52.392Z,57.13
2023-05-10T21:53:55.263Z,58.34
2023-05-10T21:58:58.083Z,59.62
2023-05-10T22:04:01.279Z,61.11
2023-05-10T22:09:05.197Z,61.87
2023-05-10T22:14:08.088Z,62.91
2023-05-10T22:19:10.893Z,63.99
2023-05-10T22:24:13.827Z,64.80
2023-05-10T22:29:17.144Z,64.67
2023-05-10T22:34:19.855Z,64.31
2023-05-10T22:39:23.656Z,64.53
2023-05-10T22:44:26.485Z,64.58
2023-05-10T22:49:29.383Z,64.92
2023-05-10T22:54:33.750Z,64.77
2023-05-10T22:59:38.620Z,65.14
2023-05-10T23:04:41.506Z,65.97
2023-05-10T23:09:44.381Z,66.39
2023-05-10T23:14:47.765Z,67.13
2023-05-10T23:19:50.593Z,68.90
2023-05-10T23:24:53.388Z,69.67
2023-05-10T23:29:56.831Z,70.60
2023-05-10T23:34:59.595Z,70.72
2023-05-10T23:40:03.241Z,69.88
2023-05-10T23:45:06.799Z,69.23
2023-05-10T23:50:10.251Z,68.70
2023-05-10T23:55:13.177Z,67.87
